aviador You're here:

LFMY Decoded Metar

SALON in FRANCE
Report Time2018-05-28 04:30:00
UTC Time2018-05-28 04:44:51
Flight Rules vfr VFR
WindVRB at 02 kt
Visibility9999 m
Phenomena:N/A
Clouds:N/A
Expected CloudBase > 800 ft AGL from Temp-Dew spread
CeilingNone
Temp18°C (ISA +3)
Dew Point16°C (88% RH)
QNH1014 hPa
Density Alt804 ft
Elevation197 ft
Report Wrong Elevation
Raw Report
METAR LFMY 280430Z AUTO VRB02KT 9999 ///CB 18/16 Q1014=

Extra information for LFMY:More info

Metar Taf Metar & Taf Last 4 Metars F.Rules Stats Wind Profile Meteogram Temp Stats Airport Information Weather charts Add Link Nearby VenuesMetar ALERT Operation Metar Decoded Social comments